createdAt,value
2018-05-07T00:00:50.589Z,2.47
2018-05-07T00:03:19.830Z,2.60
2018-05-07T00:05:49.106Z,2.90
2018-05-07T00:08:18.232Z,2.80
2018-05-07T00:10:47.454Z,2.20
2018-05-07T00:13:17.447Z,2.97
2018-05-07T00:15:46.681Z,2.80
2018-05-07T00:18:16.791Z,2.83
2018-05-07T00:20:46.039Z,2.40
2018-05-07T00:23:15.228Z,2.97
2018-05-07T00:25:44.426Z,3.03
2018-05-07T00:28:13.718Z,2.90
2018-05-07T00:30:43.670Z,3.30
2018-05-07T00:33:13.048Z,3.20
2018-05-07T00:35:42.237Z,3.30
2018-05-07T00:38:11.630Z,2.90
2018-05-07T00:40:40.831Z,3.10
2018-05-07T00:43:10.084Z,2.60
2018-05-07T00:45:39.534Z,2.80
2018-05-07T00:48:09.487Z,2.60
2018-05-07T00:50:38.673Z,2.63
2018-05-07T00:53:08.129Z,2.60
2018-05-07T00:55:38.113Z,2.90
2018-05-07T00:58:07.315Z,2.60
2018-05-07T01:00:37.301Z,2.60
2018-05-07T01:03:06.522Z,2.90
2018-05-07T01:05:35.729Z,2.93
2018-05-07T01:08:05.722Z,3.30
2018-05-07T01:10:34.918Z,2.80
2018-05-07T01:13:04.119Z,2.67
2018-05-07T01:15:33.345Z,2.83
2018-05-07T01:18:03.315Z,2.70
2018-05-07T01:20:32.536Z,2.83
2018-05-07T01:23:01.745Z,3.23
2018-05-07T01:25:32.666Z,2.83
2018-05-07T01:28:01.995Z,3.10
2018-05-07T01:30:32.033Z,2.93
2018-05-07T01:33:01.260Z,2.73
2018-05-07T01:35:30.499Z,2.93
2018-05-07T01:38:00.505Z,3.00
2018-05-07T01:40:29.993Z,2.73
2018-05-07T01:42:59.246Z,3.17
2018-05-07T01:45:29.209Z,2.43
2018-05-07T01:47:58.413Z,2.87
2018-05-07T01:50:27.729Z,3.10
2018-05-07T01:52:56.970Z,3.27
2018-05-07T01:55:26.277Z,4.23
2018-05-07T01:57:55.489Z,4.27
2018-05-07T02:00:24.713Z,3.70
2018-05-07T02:02:54.729Z,4.83
2018-05-07T02:05:24.108Z,4.00
2018-05-07T02:07:53.365Z,4.20
2018-05-07T02:10:22.568Z,3.90
2018-05-07T02:12:51.767Z,3.60
2018-05-07T02:15:21.056Z,3.80
2018-05-07T02:17:50.274Z,3.83
2018-05-07T02:20:19.567Z,4.17
2018-05-07T02:22:48.795Z,3.60
2018-05-07T02:25:18.018Z,3.60
2018-05-07T02:27:47.264Z,3.93
2018-05-07T02:30:16.468Z,3.50
2018-05-07T02:32:45.729Z,3.30
2018-05-07T02:35:15.714Z,3.97
2018-05-07T02:37:44.960Z,3.50
2018-05-07T02:40:14.380Z,4.20
2018-05-07T02:42:43.589Z,4.17
2018-05-07T02:45:12.812Z,5.53
2018-05-07T02:47:43.563Z,5.03
2018-05-07T02:50:13.553Z,3.93
2018-05-07T02:52:42.768Z,4.13
2018-05-07T02:55:12.224Z,4.30
2018-05-07T02:57:41.489Z,3.70
2018-05-07T03:00:10.721Z,3.80
2018-05-07T03:02:39.934Z,4.30
2018-05-07T03:05:09.162Z,3.73
2018-05-07T03:07:38.361Z,3.50
2018-05-07T03:10:08.393Z,4.37
2018-05-07T03:12:37.583Z,3.80
2018-05-07T03:15:07.625Z,4.50
2018-05-07T03:17:36.858Z,3.40
2018-05-07T03:20:06.813Z,3.90
2018-05-07T03:22:35.985Z,4.13
2018-05-07T03:25:05.234Z,3.83
2018-05-07T03:27:35.985Z,4.20
2018-05-07T03:30:05.226Z,3.90
2018-05-07T03:32:34.486Z,5.10
2018-05-07T03:35:03.738Z,4.27
2018-05-07T03:37:32.927Z,4.40
2018-05-07T03:40:02.937Z,4.03
2018-05-07T03:42:32.409Z,4.70
2018-05-07T03:45:01.686Z,4.30
2018-05-07T03:47:30.901Z,3.73
2018-05-07T03:50:00.126Z,4.00
2018-05-07T03:52:29.467Z,3.70
2018-05-07T03:54:58.677Z,4.60
2018-05-07T03:57:27.916Z,3.70
2018-05-07T03:59:57.263Z,4.27
2018-05-07T04:02:27.257Z,4.27
2018-05-07T04:04:56.458Z,4.20
2018-05-07T04:07:26.650Z,5.00
2018-05-07T04:09:55.673Z,3.90
2018-05-07T04:12:25.679Z,3.90
2018-05-07T04:14:54.881Z,4.00
2018-05-07T04:17:42.790Z,4.57
2018-05-07T04:20:29.766Z,4.00
2018-05-07T04:23:17.743Z,4.70
2018-05-07T04:25:46.955Z,3.87
2018-05-07T04:28:16.169Z,4.97
2018-05-07T04:30:46.151Z,4.03
2018-05-07T04:33:16.234Z,3.90
2018-05-07T04:35:45.470Z,3.93
2018-05-07T04:38:14.709Z,4.00
2018-05-07T04:40:44.782Z,4.50
2018-05-07T04:43:14.186Z,4.20
2018-05-07T04:45:43.313Z,3.80
2018-05-07T04:48:13.362Z,4.60
2018-05-07T04:50:42.666Z,4.43
2018-05-07T04:53:11.872Z,4.07
2018-05-07T04:55:41.096Z,4.03
2018-05-07T04:58:10.444Z,4.53
2018-05-07T05:00:39.768Z,4.60
2018-05-07T05:03:09.003Z,4.53
2018-05-07T05:05:38.225Z,4.83
2018-05-07T05:08:08.233Z,4.60
2018-05-07T05:10:37.458Z,4.40
2018-05-07T05:13:06.665Z,4.77
2018-05-07T05:15:35.886Z,3.90
2018-05-07T05:18:05.112Z,4.60
2018-05-07T05:20:35.811Z,5.00
2018-05-07T05:23:05.044Z,4.77
2018-05-07T05:25:34.307Z,4.70
2018-05-07T05:28:03.557Z,4.03
2018-05-07T05:30:32.769Z,5.63
2018-05-07T05:33:02.799Z,4.70
2018-05-07T05:35:32.757Z,4.63
2018-05-07T05:38:02.792Z,4.90
2018-05-07T05:40:32.042Z,4.53
2018-05-07T05:43:01.333Z,4.80
2018-05-07T05:45:30.550Z,3.80
2018-05-07T05:47:59.784Z,4.70
2018-05-07T05:50:28.995Z,4.07
2018-05-07T05:52:58.230Z,4.43
2018-05-07T05:55:27.509Z,4.30
2018-05-07T05:57:56.755Z,4.17
2018-05-07T06:00:25.995Z,3.93
2018-05-07T06:02:56.032Z,4.37
2018-05-07T06:05:26.103Z,3.70
2018-05-07T06:07:55.705Z,4.30
2018-05-07T06:10:24.939Z,3.93
2018-05-07T06:12:54.198Z,4.30
2018-05-07T06:15:23.435Z,4.33
2018-05-07T06:17:52.654Z,5.07
2018-05-07T06:20:21.904Z,5.03
2018-05-07T06:22:51.107Z,5.07
2018-05-07T06:25:20.319Z,5.47
2018-05-07T06:27:50.313Z,4.90
2018-05-07T06:30:19.562Z,5.33
2018-05-07T06:32:48.776Z,5.63
2018-05-07T06:35:18.030Z,5.60
2018-05-07T06:37:48.019Z,4.90
2018-05-07T06:40:17.301Z,5.23
2018-05-07T06:42:47.238Z,5.07
2018-05-07T06:45:17.989Z,5.57
2018-05-07T06:47:47.992Z,5.73
2018-05-07T06:50:17.251Z,5.40
2018-05-07T06:52:46.486Z,5.70
2018-05-07T06:55:15.741Z,5.20
2018-05-07T06:57:44.976Z,5.13
2018-05-07T07:00:14.196Z,5.10
2018-05-07T07:02:44.295Z,4.70
2018-05-07T07:05:13.453Z,5.23
2018-05-07T07:07:42.717Z,4.53
2018-05-07T07:10:12.683Z,4.90
2018-05-07T07:12:41.945Z,4.53
2018-05-07T07:15:11.191Z,5.07
2018-05-07T07:17:40.432Z,4.73
2018-05-07T07:20:09.861Z,5.10
2018-05-07T07:22:39.080Z,4.40
2018-05-07T07:25:08.322Z,4.90
2018-05-07T07:27:38.313Z,5.40
2018-05-07T07:30:07.537Z,6.00
2018-05-07T07:32:36.801Z,3.90
2018-05-07T07:35:06.025Z,4.90
2018-05-07T07:37:36.032Z,4.77
2018-05-07T07:40:05.236Z,5.27
2018-05-07T07:42:34.471Z,4.57
2018-05-07T07:45:03.737Z,4.93
2018-05-07T07:47:33.525Z,4.67
2018-05-07T07:50:02.749Z,5.00
2018-05-07T07:52:32.791Z,5.53
2018-05-07T07:55:03.493Z,5.93
2018-05-07T07:57:33.487Z,5.30
2018-05-07T08:00:02.821Z,4.87
2018-05-07T08:02:32.058Z,4.27
2018-05-07T08:05:01.277Z,4.80
2018-05-07T08:07:30.555Z,5.30
2018-05-07T08:09:59.857Z,4.80
2018-05-07T08:12:29.062Z,5.50
2018-05-07T08:14:58.333Z,5.10
2018-05-07T08:17:27.692Z,5.27
2018-05-07T08:19:56.929Z,4.47
2018-05-07T08:22:26.159Z,4.83
2018-05-07T08:24:55.385Z,4.77
2018-05-07T08:27:24.608Z,4.40
2018-05-07T08:29:54.585Z,4.80
2018-05-07T08:32:23.838Z,5.00
2018-05-07T08:34:53.042Z,4.53
2018-05-07T08:37:22.270Z,4.33
2018-05-07T08:39:51.475Z,4.83
2018-05-07T08:42:20.722Z,4.40
2018-05-07T08:44:49.958Z,4.93
2018-05-07T08:47:19.185Z,4.40
2018-05-07T08:49:48.394Z,4.40
2018-05-07T08:52:18.423Z,4.13
2018-05-07T08:54:48.565Z,4.63
2018-05-07T08:57:17.814Z,4.90
2018-05-07T08:59:48.554Z,4.83
2018-05-07T09:02:18.620Z,5.73
2018-05-07T09:04:48.802Z,4.13
2018-05-07T09:07:18.801Z,4.17
2018-05-07T09:09:48.797Z,4.60
2018-05-07T09:12:18.081Z,4.80
2018-05-07T09:14:47.397Z,3.93
2018-05-07T09:17:16.597Z,4.47
2018-05-07T09:19:47.569Z,4.17
2018-05-07T09:22:17.588Z,4.80
2018-05-07T09:24:47.017Z,4.50
2018-05-07T09:27:16.304Z,3.90
2018-05-07T09:29:45.626Z,4.20
2018-05-07T09:32:14.852Z,4.10
2018-05-07T09:34:44.096Z,3.77
2018-05-07T09:37:13.297Z,3.93
2018-05-07T09:39:42.521Z,5.13
2018-05-07T09:42:11.777Z,3.80
2018-05-07T09:44:41.764Z,3.90
2018-05-07T09:47:10.962Z,3.10
2018-05-07T09:49:40.650Z,4.50
2018-05-07T09:52:09.889Z,3.40
2018-05-07T09:54:39.869Z,3.47
2018-05-07T09:57:09.076Z,3.00
2018-05-07T09:59:38.298Z,2.63
2018-05-07T10:02:08.296Z,3.07
2018-05-07T10:04:37.513Z,3.33
2018-05-07T10:07:07.497Z,3.50
2018-05-07T10:09:36.913Z,3.30
2018-05-07T10:12:06.112Z,2.43
2018-05-07T10:14:35.330Z,3.10
2018-05-07T10:17:05.352Z,2.73
2018-05-07T10:19:34.959Z,3.00
2018-05-07T10:22:04.928Z,2.63
2018-05-07T10:24:34.152Z,3.10
2018-05-07T10:27:03.405Z,3.50
2018-05-07T10:29:32.765Z,2.83
2018-05-07T10:32:02.051Z,2.67
2018-05-07T10:34:31.256Z,2.63
2018-05-07T10:37:00.475Z,2.77
2018-05-07T10:39:30.576Z,3.00
2018-05-07T10:42:00.605Z,2.93
2018-05-07T10:44:30.600Z,2.20
2018-05-07T10:46:59.969Z,2.77
2018-05-07T10:49:29.181Z,2.80
2018-05-07T10:51:59.970Z,3.03
2018-05-07T10:54:29.177Z,3.70
2018-05-07T10:56:58.420Z,3.50
2018-05-07T10:59:27.628Z,2.80
2018-05-07T11:01:56.838Z,3.37
2018-05-07T11:04:26.816Z,2.80
2018-05-07T11:06:56.088Z,2.73
2018-05-07T11:09:25.392Z,2.87
2018-05-07T11:11:55.343Z,2.50
2018-05-07T11:14:24.553Z,2.47
2018-05-07T11:16:54.613Z,2.67
2018-05-07T11:19:23.973Z,2.10
2018-05-07T11:21:54.052Z,2.47
2018-05-07T11:24:23.237Z,2.57
2018-05-07T11:26:52.530Z,3.20
2018-05-07T11:29:21.770Z,2.30
2018-05-07T11:31:51.009Z,2.90
2018-05-07T11:34:20.236Z,3.17
2018-05-07T11:36:49.509Z,2.90
2018-05-07T11:39:18.753Z,2.73
2018-05-07T11:41:48.718Z,3.03
2018-05-07T11:44:17.976Z,2.30
2018-05-07T11:46:47.164Z,2.60
2018-05-07T11:49:16.375Z,2.93
2018-05-07T11:51:45.577Z,2.60
2018-05-07T11:54:14.865Z,2.43
2018-05-07T11:56:44.070Z,2.77
2018-05-07T11:59:13.277Z,2.00
2018-05-07T12:01:43.233Z,2.37
2018-05-07T12:04:12.513Z,2.60
2018-05-07T12:06:42.082Z,2.27
2018-05-07T12:09:11.300Z,2.30
2018-05-07T12:11:40.522Z,2.67
2018-05-07T12:14:10.674Z,2.30
2018-05-07T12:16:40.028Z,2.20
2018-05-07T12:19:10.059Z,2.87
2018-05-07T12:21:39.294Z,2.40
2018-05-07T12:24:08.506Z,2.37
2018-05-07T12:26:37.762Z,2.90
2018-05-07T12:29:06.970Z,2.30
2018-05-07T12:31:36.386Z,2.50
2018-05-07T12:34:05.492Z,2.57
2018-05-07T12:36:35.544Z,2.43
2018-05-07T12:39:05.589Z,2.10
2018-05-07T12:41:34.873Z,2.20
2018-05-07T12:44:04.091Z,2.33
2018-05-07T12:46:34.065Z,3.13
2018-05-07T12:49:03.261Z,2.80
2018-05-07T12:51:33.350Z,2.77
2018-05-07T12:54:02.570Z,2.37
2018-05-07T12:56:31.804Z,2.23
2018-05-07T12:59:01.142Z,2.50
2018-05-07T13:01:30.291Z,2.53
2018-05-07T13:03:59.526Z,2.27
2018-05-07T13:06:29.568Z,2.60
2018-05-07T13:08:58.773Z,2.20
2018-05-07T13:11:28.083Z,2.20
2018-05-07T13:13:57.497Z,2.00
2018-05-07T13:16:27.508Z,2.17
2018-05-07T13:18:57.889Z,2.20
2018-05-07T13:21:27.186Z,2.13
2018-05-07T13:23:56.434Z,2.90
2018-05-07T13:26:26.434Z,2.57
2018-05-07T13:28:56.434Z,2.27
2018-05-07T13:31:25.663Z,2.07
2018-05-07T13:33:55.675Z,2.00
2018-05-07T13:36:24.864Z,1.90
2018-05-07T13:38:54.877Z,2.23
2018-05-07T13:41:24.860Z,1.90
2018-05-07T13:43:54.093Z,2.63
2018-05-07T13:46:24.814Z,2.10
2018-05-07T13:48:54.045Z,2.40
2018-05-07T13:51:23.261Z,1.97
2018-05-07T13:53:52.681Z,2.30
2018-05-07T13:56:21.934Z,2.50
2018-05-07T13:58:51.918Z,2.33
2018-05-07T14:01:21.154Z,1.90
2018-05-07T14:03:51.146Z,2.10
2018-05-07T14:06:20.473Z,2.03
2018-05-07T14:08:50.561Z,2.10
2018-05-07T14:11:21.356Z,1.90
2018-05-07T14:13:50.546Z,2.40
2018-05-07T14:16:19.765Z,2.63
2018-05-07T14:18:49.050Z,2.23
2018-05-07T14:21:18.295Z,2.50
2018-05-07T14:23:47.817Z,2.17
2018-05-07T14:26:17.898Z,2.47
2018-05-07T14:28:47.067Z,2.33
2018-05-07T14:31:16.289Z,1.97
2018-05-07T14:33:45.512Z,2.43
2018-05-07T14:36:14.734Z,3.30
2018-05-07T14:38:44.007Z,4.40
2018-05-07T14:41:13.242Z,3.13
2018-05-07T14:43:42.655Z,4.10
2018-05-07T14:46:11.883Z,2.97
2018-05-07T14:48:41.098Z,2.70
2018-05-07T14:51:10.306Z,2.70
2018-05-07T14:53:39.554Z,1.97
2018-05-07T14:56:08.817Z,2.73
2018-05-07T14:58:38.874Z,2.63
2018-05-07T15:01:08.059Z,2.30
2018-05-07T15:03:37.265Z,2.73
2018-05-07T15:06:06.465Z,2.57
2018-05-07T15:08:35.739Z,3.23
2018-05-07T15:11:04.967Z,2.50
2018-05-07T15:13:34.273Z,2.30
2018-05-07T15:16:03.453Z,2.33
2018-05-07T15:18:32.688Z,2.00
2018-05-07T15:21:01.905Z,2.20
2018-05-07T15:23:31.927Z,1.60
2018-05-07T15:26:01.170Z,2.80
2018-05-07T15:28:30.389Z,2.60
2018-05-07T15:30:59.669Z,2.20
2018-05-07T15:33:28.901Z,2.10
2018-05-07T15:35:58.196Z,2.00
2018-05-07T15:38:27.433Z,2.07
2018-05-07T15:40:56.729Z,1.90
2018-05-07T15:43:25.965Z,2.00
2018-05-07T15:45:55.271Z,2.50
2018-05-07T15:48:24.553Z,2.13
2018-05-07T15:50:53.800Z,1.90
2018-05-07T15:53:23.070Z,1.93
2018-05-07T15:55:52.307Z,1.60
2018-05-07T15:58:21.603Z,2.70
2018-05-07T16:00:51.626Z,2.70
2018-05-07T16:03:21.054Z,2.40
2018-05-07T16:05:51.002Z,2.13
2018-05-07T16:08:20.241Z,1.87
2018-05-07T16:10:50.223Z,2.20
2018-05-07T16:13:19.461Z,2.63
2018-05-07T16:15:49.478Z,1.60
2018-05-07T16:18:18.709Z,2.33
2018-05-07T16:20:47.929Z,2.70
2018-05-07T16:23:17.311Z,2.53
2018-05-07T16:25:46.385Z,1.40
2018-05-07T16:28:15.646Z,2.10
2018-05-07T16:30:44.819Z,2.10
2018-05-07T16:33:14.061Z,2.10
2018-05-07T16:35:44.128Z,1.93
2018-05-07T16:38:13.285Z,1.90
2018-05-07T16:40:42.545Z,2.40
2018-05-07T16:43:11.766Z,4.03
2018-05-07T16:45:41.778Z,2.37
2018-05-07T16:48:11.742Z,2.50
2018-05-07T16:50:41.273Z,1.60
2018-05-07T16:53:10.559Z,1.90
2018-05-07T16:55:39.790Z,2.40
2018-05-07T16:58:09.024Z,2.03
2018-05-07T17:00:38.221Z,2.13
2018-05-07T17:03:07.493Z,1.87
2018-05-07T17:05:37.500Z,1.67
2018-05-07T17:08:06.729Z,2.80
2018-05-07T17:10:35.954Z,2.20
2018-05-07T17:13:05.231Z,1.87
2018-05-07T17:15:35.171Z,1.90
2018-05-07T17:18:04.410Z,2.33
2018-05-07T17:20:34.393Z,2.20
2018-05-07T17:23:03.642Z,2.20
2018-05-07T17:25:33.214Z,2.57
2018-05-07T17:28:02.461Z,2.47
2018-05-07T17:30:31.653Z,2.40
2018-05-07T17:33:00.893Z,2.30
2018-05-07T17:35:30.112Z,2.30
2018-05-07T17:37:59.361Z,2.10
2018-05-07T17:40:28.611Z,2.30
2018-05-07T17:42:57.813Z,2.50
2018-05-07T17:45:45.250Z,2.37
2018-05-07T18:01:51.512Z,2.17
2018-05-07T18:04:21.483Z,2.30
2018-05-07T18:06:50.679Z,1.77
2018-05-07T18:09:21.529Z,2.30
2018-05-07T18:11:51.521Z,2.37
2018-05-07T18:14:21.381Z,2.30
2018-05-07T18:16:50.686Z,2.30
2018-05-07T18:19:20.763Z,2.33
2018-05-07T18:21:50.002Z,2.17
2018-05-07T18:24:19.990Z,2.13
2018-05-07T18:26:49.324Z,2.10
2018-05-07T18:29:19.327Z,2.33
2018-05-07T18:31:49.410Z,2.00
2018-05-07T18:34:18.633Z,2.10
2018-05-07T18:36:48.727Z,2.10
2018-05-07T18:39:17.983Z,2.20
2018-05-07T18:41:47.262Z,2.20
2018-05-07T18:44:17.304Z,2.07
2018-05-07T18:46:46.573Z,2.63
2018-05-07T18:49:15.806Z,2.13
2018-05-07T18:51:45.029Z,2.40
2018-05-07T18:54:14.269Z,2.20
2018-05-07T18:56:44.238Z,2.10
2018-05-07T18:59:13.489Z,2.07
2018-05-07T19:01:42.716Z,2.10
2018-05-07T19:04:12.169Z,2.40
2018-05-07T19:06:41.427Z,2.40
2018-05-07T19:09:10.706Z,1.90
2018-05-07T19:11:39.952Z,2.30
2018-05-07T19:14:09.971Z,1.90
2018-05-07T19:16:39.202Z,2.30
2018-05-07T19:19:08.493Z,2.70
2018-05-07T19:21:37.759Z,2.57
2018-05-07T19:24:06.996Z,2.40
2018-05-07T19:26:36.199Z,2.20
2018-05-07T19:29:05.452Z,2.00
2018-05-07T19:31:34.780Z,2.30
2018-05-07T19:34:04.788Z,2.30
2018-05-07T19:36:34.797Z,2.50
2018-05-07T19:39:04.054Z,2.37
2018-05-07T19:41:33.417Z,2.40
2018-05-07T19:44:02.641Z,2.20
2018-05-07T19:46:31.885Z,2.00
2018-05-07T19:49:01.144Z,2.33
2018-05-07T19:51:30.389Z,2.20
2018-05-07T19:54:00.383Z,2.57
2018-05-07T19:56:29.649Z,2.30
2018-05-07T19:58:58.865Z,2.00
2018-05-07T20:01:28.250Z,2.53
2018-05-07T20:03:57.697Z,2.10
2018-05-07T20:06:28.434Z,2.70
2018-05-07T20:08:58.492Z,2.20
2018-05-07T20:11:29.405Z,1.83
2018-05-07T20:26:58.799Z,2.50
2018-05-07T20:29:28.082Z,2.60
2018-05-07T20:31:57.321Z,2.63
2018-05-07T20:34:26.570Z,2.43
2018-05-07T20:36:56.600Z,3.03
2018-05-07T20:39:28.006Z,2.40
2018-05-07T20:41:58.091Z,2.50
2018-05-07T20:44:27.780Z,2.73
2018-05-07T20:46:57.043Z,2.30
2018-05-07T20:49:26.300Z,2.10
2018-05-07T20:51:55.631Z,2.80
2018-05-07T20:54:24.873Z,2.20
2018-05-07T20:56:54.977Z,2.47
2018-05-07T20:59:24.208Z,2.70
2018-05-07T21:01:54.910Z,2.40
2018-05-07T21:04:24.206Z,2.60
2018-05-07T21:06:53.670Z,2.53
2018-05-07T21:09:22.895Z,2.60
2018-05-07T21:11:52.124Z,2.30
2018-05-07T21:14:22.143Z,2.70
2018-05-07T21:16:52.204Z,2.87
2018-05-07T21:19:22.879Z,2.30
2018-05-07T21:21:52.149Z,2.93
2018-05-07T21:24:21.499Z,3.03
2018-05-07T21:26:50.733Z,2.20
2018-05-07T21:29:20.283Z,2.53
2018-05-07T21:31:49.695Z,2.30
2018-05-07T21:34:19.698Z,2.33
2018-05-07T21:36:49.761Z,2.90
2018-05-07T21:39:19.913Z,2.40
2018-05-07T21:41:49.154Z,2.50
2018-05-07T21:44:18.405Z,2.53
2018-05-07T21:46:47.628Z,2.50
2018-05-07T21:49:16.871Z,2.87
2018-05-07T21:51:46.178Z,2.70
2018-05-07T21:54:15.421Z,2.90
2018-05-07T21:56:45.500Z,2.40
2018-05-07T21:59:14.742Z,3.27
2018-05-07T22:01:44.744Z,3.37
2018-05-07T22:04:13.995Z,3.10
2018-05-07T22:06:43.209Z,3.83
2018-05-07T22:09:12.414Z,3.00
2018-05-07T22:11:41.680Z,2.97
2018-05-07T22:14:11.620Z,2.40
2018-05-07T22:16:40.995Z,2.40
2018-05-07T22:19:10.134Z,2.80
2018-05-07T22:21:39.377Z,3.60
2018-05-07T22:24:08.595Z,3.10
2018-05-07T22:26:37.849Z,3.07
2018-05-07T22:29:07.053Z,2.77
2018-05-07T22:31:36.273Z,3.27
2018-05-07T22:34:05.506Z,2.63
2018-05-07T22:36:34.754Z,2.80
2018-05-07T22:39:28.025Z,3.27
2018-05-07T22:41:57.251Z,2.93
2018-05-07T22:44:26.448Z,3.50
2018-05-07T22:46:55.694Z,3.00
2018-05-07T22:49:25.123Z,2.80
2018-05-07T22:51:54.366Z,3.00
2018-05-07T22:54:23.710Z,2.67
2018-05-07T22:56:53.674Z,2.80
2018-05-07T22:59:23.004Z,2.57
2018-05-07T23:01:52.247Z,2.83
2018-05-07T23:04:21.464Z,3.50
2018-05-07T23:06:50.677Z,3.13
2018-05-07T23:09:19.886Z,3.03
2018-05-07T23:11:49.113Z,2.70
2018-05-07T23:14:19.121Z,2.97
2018-05-07T23:16:48.367Z,2.77
2018-05-07T23:19:17.587Z,2.43
2018-05-07T23:21:46.814Z,2.97
2018-05-07T23:24:16.037Z,2.90
2018-05-07T23:26:45.233Z,3.23
2018-05-07T23:29:14.464Z,2.50
2018-05-07T23:31:43.704Z,3.40
2018-05-07T23:34:13.706Z,3.03
2018-05-07T23:36:42.956Z,3.37
2018-05-07T23:39:12.160Z,3.07
2018-05-07T23:41:41.378Z,3.10
2018-05-07T23:44:10.611Z,3.40
2018-05-07T23:46:40.665Z,3.30
2018-05-07T23:49:10.023Z,3.17
2018-05-07T23:51:40.090Z,3.10
2018-05-07T23:54:09.321Z,3.53
2018-05-07T23:56:38.518Z,3.03
2018-05-07T23:59:07.784Z,3.30
